createdAt,value
2023-02-04T00:02:52.578Z,102615.09
2023-02-04T00:07:54.030Z,102626.63
2023-02-04T00:12:55.464Z,102625.56
2023-02-04T00:17:57.294Z,102640.69
2023-02-04T00:22:58.854Z,102642.44
2023-02-04T00:28:00.302Z,102644.91
2023-02-04T00:33:01.743Z,102634.47
2023-02-04T00:38:04.281Z,102643.16
2023-02-04T00:43:05.834Z,102653.91
2023-02-04T00:48:07.263Z,102659.16
2023-02-04T00:53:09.367Z,102662.56
2023-02-04T00:58:10.861Z,102672.34
2023-02-04T01:03:12.313Z,102679.41
2023-02-04T01:08:17.186Z,102671.41
2023-02-04T01:13:18.596Z,102672.22
2023-02-04T01:18:20.004Z,102673.34
2023-02-04T01:23:21.414Z,102693.50
2023-02-04T01:28:22.959Z,102678.56
2023-02-04T01:33:24.410Z,102701.53
2023-02-04T01:38:25.973Z,102704.16
2023-02-04T01:43:27.774Z,102702.44
2023-02-04T01:48:31.570Z,102699.72
2023-02-04T01:53:35.785Z,102687.28
2023-02-04T01:58:37.209Z,102708.44
2023-02-04T02:03:40.082Z,102704.88
2023-02-04T02:08:41.491Z,102721.72
2023-02-04T02:13:42.900Z,102726.13
2023-02-04T02:18:45.161Z,102739.16
2023-02-04T02:23:52.833Z,102742.00
2023-02-04T02:28:54.954Z,102740.28
2023-02-04T02:33:56.398Z,102748.97
2023-02-04T02:38:59.994Z,102752.38
2023-02-04T02:44:02.839Z,102748.81
2023-02-04T02:49:05.011Z,102751.44
2023-02-04T02:54:06.531Z,102756.84
2023-02-04T02:59:13.867Z,102765.69
2023-02-04T03:04:19.070Z,102771.97
2023-02-04T03:09:20.776Z,102768.25
2023-02-04T03:14:25.184Z,102769.84
2023-02-04T03:19:27.534Z,102766.22
2023-02-04T03:24:30.559Z,102768.09
2023-02-04T03:29:33.557Z,102773.50
2023-02-04T03:34:35.031Z,102775.16
2023-02-04T03:39:36.571Z,102775.16
2023-02-04T03:44:38.116Z,102769.03
2023-02-04T03:49:39.641Z,102787.28
2023-02-04T03:54:41.122Z,102780.06
2023-02-04T03:59:42.723Z,102799.59
2023-02-04T04:04:44.246Z,102793.50
2023-02-04T04:09:45.724Z,102794.16
2023-02-04T04:14:47.180Z,102796.06
2023-02-04T04:19:49.513Z,102808.28
2023-02-04T04:24:51.046Z,102803.09
2023-02-04T04:29:52.592Z,102814.66
2023-02-04T04:34:54.150Z,102828.44
2023-02-04T04:39:55.622Z,102818.81
2023-02-04T04:44:57.136Z,102815.06
2023-02-04T04:49:58.654Z,102820.47
2023-02-04T04:55:00.097Z,102810.75
2023-02-04T05:00:01.618Z,102826.47
2023-02-04T05:05:03.098Z,102822.06
2023-02-04T05:10:05.792Z,102828.25
2023-02-04T05:15:07.858Z,102826.63
2023-02-04T05:20:09.794Z,102837.81
2023-02-04T05:25:11.300Z,102852.75
2023-02-04T05:30:13.945Z,102847.53
2023-02-04T05:35:15.786Z,102840.84
2023-02-04T05:40:17.407Z,102855.84
2023-02-04T05:45:19.063Z,102864.66
2023-02-04T05:50:20.534Z,102872.31
2023-02-04T05:55:21.996Z,102876.25
2023-02-04T06:00:23.586Z,102882.44
2023-02-04T06:05:25.175Z,102893.03
2023-02-04T06:10:26.778Z,102899.31
2023-02-04T06:15:28.329Z,102909.13
2023-02-04T06:20:30.168Z,102909.13
2023-02-04T06:25:31.834Z,102909.06
2023-02-04T06:30:33.673Z,102915.81
2023-02-04T06:35:35.323Z,102908.84
2023-02-04T06:40:36.760Z,102902.09
2023-02-04T06:45:38.204Z,102908.84
2023-02-04T06:50:39.721Z,102913.75
2023-02-04T06:55:41.285Z,102918.63
2023-02-04T07:00:42.764Z,102928.47
2023-02-04T07:05:44.299Z,102936.25
2023-02-04T07:10:45.816Z,102933.72
2023-02-04T07:15:47.298Z,102932.13
2023-02-04T07:20:48.815Z,102939.09
2023-02-04T07:25:50.466Z,102947.88
2023-02-04T07:30:52.169Z,102945.41
2023-02-04T07:35:53.686Z,102942.78
2023-02-04T07:40:55.133Z,102949.94
2023-02-04T07:45:57.034Z,102957.91
2023-02-04T07:50:58.545Z,102966.00
2023-02-04T07:56:00.072Z,102966.00
2023-02-04T08:01:01.775Z,102979.44
2023-02-04T08:06:03.222Z,102994.59
2023-02-04T08:11:04.848Z,102994.56
2023-02-04T08:16:06.513Z,103011.22
2023-02-04T08:21:08.034Z,103012.16
2023-02-04T08:26:11.635Z,103000.09
2023-02-04T08:31:13.249Z,103014.09
2023-02-04T08:36:14.744Z,103015.91
2023-02-04T08:41:16.255Z,103024.47
2023-02-04T08:46:17.781Z,103026.53
2023-02-04T08:51:19.567Z,103038.75
2023-02-04T08:56:21.071Z,103038.75
2023-02-04T09:01:22.617Z,103045.69
2023-02-04T09:06:24.121Z,103052.97
2023-02-04T09:11:25.848Z,103062.03
2023-02-04T09:16:27.406Z,103074.72
2023-02-04T09:21:29.168Z,103067.03
2023-02-04T09:26:30.623Z,103071.50
2023-02-04T09:31:32.179Z,103074.94
2023-02-04T09:36:37.792Z,103072.94
2023-02-04T09:41:40.581Z,103068.88
2023-02-04T09:46:48.502Z,103074.28
2023-02-04T09:51:50.800Z,103069.78
2023-02-04T09:56:52.580Z,103080.28
2023-02-04T10:02:02.638Z,103082.91
2023-02-04T10:07:12.192Z,103091.19
2023-02-04T10:12:14.461Z,103096.41
2023-02-04T10:17:20.720Z,103106.13
2023-02-04T10:22:22.588Z,103093.75
2023-02-04T10:27:24.044Z,103098.94
2023-02-04T10:32:31.874Z,103090.38
2023-02-04T10:37:33.425Z,103084.91
2023-02-04T10:42:34.865Z,103080.63
2023-02-04T10:47:36.368Z,103088.97
2023-02-04T10:52:47.255Z,103091.41
2023-02-04T10:57:51.839Z,103080.84
2023-02-04T11:03:10.683Z,103089.22
2023-02-04T11:08:23.231Z,103087.31
2023-02-04T11:13:43.177Z,103098.16
2023-02-04T11:19:03.032Z,103093.72
2023-02-04T11:24:13.752Z,103101.78
2023-02-04T11:29:37.998Z,103094.56
2023-02-04T11:34:52.946Z,103094.44
2023-02-04T11:39:58.624Z,103096.66
2023-02-04T11:45:08.378Z,103090.19
2023-02-04T11:50:22.241Z,103091.97
2023-02-04T11:55:24.489Z,103105.66
2023-02-04T12:00:29.925Z,103097.41
2023-02-04T12:05:41.821Z,103102.84
2023-02-04T12:11:05.502Z,103101.25
2023-02-04T12:16:07.889Z,103092.47
2023-02-04T12:21:09.500Z,103097.00
2023-02-04T12:26:12.214Z,103097.00
2023-02-04T12:31:13.802Z,103095.25
2023-02-04T12:36:15.612Z,103099.53
2023-02-04T12:41:17.045Z,103098.91
2023-02-04T12:46:18.534Z,103109.59
2023-02-04T12:51:21.063Z,103104.25
2023-02-04T12:56:24.122Z,103113.00
2023-02-04T13:01:25.619Z,103111.22
2023-02-04T13:06:27.168Z,103100.09
2023-02-04T13:11:28.600Z,103105.72
2023-02-04T13:16:30.176Z,103109.50
2023-02-04T13:21:31.947Z,103098.84
2023-02-04T13:26:33.474Z,103096.31
2023-02-04T13:31:35.056Z,103091.88
2023-02-04T13:36:36.632Z,103085.44
2023-02-04T13:41:38.209Z,103092.63
2023-02-04T13:46:39.767Z,103089.88
2023-02-04T13:51:42.278Z,103084.56
2023-02-04T13:56:43.788Z,103072.09
2023-02-04T14:01:45.324Z,103066.91
2023-02-04T14:06:46.792Z,103072.28
2023-02-04T14:11:48.336Z,103066.00
2023-02-04T14:16:49.813Z,103059.91
2023-02-04T14:21:53.369Z,103062.44
2023-02-04T14:26:56.120Z,103065.16
2023-02-04T14:31:57.588Z,103077.59
2023-02-04T14:36:59.100Z,103077.63
2023-02-04T14:42:00.665Z,103086.38
2023-02-04T14:47:02.127Z,103091.69
2023-02-04T14:52:04.467Z,103095.91
2023-02-04T14:57:06.287Z,103102.03
2023-02-04T15:02:09.099Z,103100.22
2023-02-04T15:07:11.802Z,103114.56
2023-02-04T15:12:13.312Z,103101.25
2023-02-04T15:17:14.830Z,103096.91
2023-02-04T15:22:16.322Z,103099.47
2023-02-04T15:27:17.777Z,103105.00
2023-02-04T15:32:20.277Z,103105.84
2023-02-04T15:37:21.872Z,103120.94
2023-02-04T15:42:23.409Z,103118.31
2023-02-04T15:47:24.868Z,103108.75
2023-02-04T15:52:27.868Z,103114.00
2023-02-04T15:57:30.582Z,103117.38
2023-02-04T16:02:32.161Z,103113.69
2023-02-04T16:07:33.876Z,103124.41
2023-02-04T16:12:35.325Z,103127.81
2023-02-04T16:17:36.859Z,103121.91
2023-02-04T16:22:38.299Z,103123.72
2023-02-04T16:27:39.772Z,103132.41
2023-02-04T16:32:41.496Z,103132.25
2023-02-04T16:37:43.042Z,103126.91
2023-02-04T16:42:44.514Z,103132.13
2023-02-04T16:47:45.922Z,103144.78
2023-02-04T16:52:47.363Z,103154.41
2023-02-04T16:57:48.796Z,103157.69
2023-02-04T17:02:50.407Z,103164.66
2023-02-04T17:07:51.991Z,103165.53
2023-02-04T17:12:53.493Z,103165.63
2023-02-04T17:17:55.029Z,103165.53
2023-02-04T17:22:56.515Z,103163.81
2023-02-04T17:27:58.072Z,103170.81
2023-02-04T17:32:59.545Z,103175.16
2023-02-04T17:38:01.269Z,103162.84
2023-02-04T17:43:03.780Z,103177.88
2023-02-04T17:48:05.452Z,103171.78
2023-02-04T17:53:08.075Z,103176.13
2023-02-04T17:58:15.378Z,103176.97
2023-02-04T18:03:20.974Z,103181.31
2023-02-04T18:08:32.831Z,103187.47
2023-02-04T18:13:34.379Z,103184.81
2023-02-04T18:18:40.443Z,103175.97
2023-02-04T18:23:42.864Z,103182.09
2023-02-04T18:28:47.842Z,103180.16
2023-02-04T18:33:49.470Z,103175.63
2023-02-04T18:38:51.034Z,103172.13
2023-02-04T18:44:02.178Z,103180.59
2023-02-04T18:49:26.673Z,103178.56
2023-02-04T18:54:36.365Z,103177.44
2023-02-04T18:59:38.013Z,103165.88
2023-02-04T19:04:39.447Z,103157.94
2023-02-04T19:09:40.996Z,103161.56
2023-02-04T19:14:45.700Z,103168.44
2023-02-04T19:20:02.095Z,103165.78
2023-02-04T19:25:32.512Z,103170.09
2023-02-04T19:30:57.204Z,103181.59
2023-02-04T19:36:06.832Z,103172.81
2023-02-04T19:41:28.170Z,103174.28
2023-02-04T19:46:29.633Z,103172.28
2023-02-04T19:51:31.730Z,103173.53
2023-02-04T19:56:39.014Z,103179.22
2023-02-04T20:01:40.521Z,103184.44
2023-02-04T20:06:43.663Z,103181.34
2023-02-04T20:12:08.130Z,103188.47
2023-02-04T20:17:15.300Z,103193.31
2023-02-04T20:22:23.438Z,103186.28
2023-02-04T20:27:36.414Z,103182.34
2023-02-04T20:32:43.986Z,103168.00
2023-02-04T20:37:50.937Z,103167.00
2023-02-04T20:43:16.076Z,103164.66
2023-02-04T20:48:17.516Z,103162.69
2023-02-04T20:53:38.914Z,103167.09
2023-02-04T20:58:43.503Z,103161.78
2023-02-04T21:03:45.746Z,103164.47
2023-02-04T21:08:49.834Z,103167.84
2023-02-04T21:13:52.827Z,103168.78
2023-02-04T21:18:54.677Z,103164.53
2023-02-04T21:23:56.272Z,103177.75
2023-02-04T21:28:57.733Z,103177.25
2023-02-04T21:33:59.344Z,103181.53
2023-02-04T21:39:00.828Z,103161.16
2023-02-04T21:44:02.264Z,103175.41
2023-02-04T21:49:05.154Z,103177.09
2023-02-04T21:54:06.747Z,103189.47
2023-02-04T21:59:08.218Z,103192.72
2023-02-04T22:04:09.671Z,103176.31
2023-02-04T22:09:11.116Z,103178.75
2023-02-04T22:14:12.795Z,103166.53
2023-02-04T22:19:14.328Z,103166.63
2023-02-04T22:24:15.864Z,103153.50
2023-02-04T22:29:23.480Z,103148.03
2023-02-04T22:34:25.397Z,103145.31
2023-02-04T22:39:26.964Z,103155.69
2023-02-04T22:44:28.391Z,103162.91
2023-02-04T22:49:32.431Z,103168.16
2023-02-04T22:54:34.156Z,103163.75
2023-02-04T22:59:35.855Z,103164.47
2023-02-04T23:04:37.336Z,103179.56
2023-02-04T23:09:39.108Z,103178.44
2023-02-04T23:14:45.914Z,103177.66
2023-02-04T23:19:47.478Z,103183.97
2023-02-04T23:24:49.614Z,103185.72
2023-02-04T23:29:51.050Z,103182.41
2023-02-04T23:34:52.596Z,103178.66
2023-02-04T23:39:54.157Z,103173.53
2023-02-04T23:44:55.642Z,103177.25
2023-02-04T23:49:57.086Z,103175.19
2023-02-04T23:54:58.552Z,103168.09
2023-02-04T23:59:59.974Z,103178.44
